sensor_id;sensor_type;location;lat;lon;timestamp;temperature;humidity
17495;DHT22;8864;51.970;4.614;2023-07-16T00:02:21;26.20;60.70
17495;DHT22;8864;51.970;4.614;2023-07-16T00:04:49;26.20;60.70
17495;DHT22;8864;51.970;4.614;2023-07-16T00:07:15;26.20;60.70
17495;DHT22;8864;51.970;4.614;2023-07-16T00:09:43;26.20;60.70
17495;DHT22;8864;51.970;4.614;2023-07-16T00:12:12;26.20;60.70
17495;DHT22;8864;51.970;4.614;2023-07-16T00:14:39;26.20;60.70
17495;DHT22;8864;51.970;4.614;2023-07-16T00:17:06;26.20;60.70
17495;DHT22;8864;51.970;4.614;2023-07-16T00:19:32;26.20;60.70
17495;DHT22;8864;51.970;4.614;2023-07-16T00:22:00;26.20;60.70
17495;DHT22;8864;51.970;4.614;2023-07-16T00:24:27;26.20;60.70
17495;DHT22;8864;51.970;4.614;2023-07-16T00:26:54;26.20;60.70
17495;DHT22;8864;51.970;4.614;2023-07-16T00:29:22;26.20;60.70
17495;DHT22;8864;51.970;4.614;2023-07-16T00:31:49;26.20;60.70
17495;DHT22;8864;51.970;4.614;2023-07-16T00:34:16;26.20;60.60
17495;DHT22;8864;51.970;4.614;2023-07-16T00:36:43;26.20;60.60
17495;DHT22;8864;51.970;4.614;2023-07-16T00:39:10;26.20;60.70
17495;DHT22;8864;51.970;4.614;2023-07-16T00:41:37;26.10;60.50
17495;DHT22;8864;51.970;4.614;2023-07-16T00:44:05;26.10;60.60
17495;DHT22;8864;51.970;4.614;2023-07-16T00:46:34;26.20;60.60
17495;DHT22;8864;51.970;4.614;2023-07-16T00:49:01;26.10;60.50
17495;DHT22;8864;51.970;4.614;2023-07-16T00:51:28;26.20;60.70
17495;DHT22;8864;51.970;4.614;2023-07-16T00:53:56;26.10;60.60
17495;DHT22;8864;51.970;4.614;2023-07-16T00:56:23;26.10;60.60
17495;DHT22;8864;51.970;4.614;2023-07-16T00:58:50;26.10;60.50
17495;DHT22;8864;51.970;4.614;2023-07-16T01:01:17;26.10;60.60
17495;DHT22;8864;51.970;4.614;2023-07-16T01:03:45;26.10;60.60
17495;DHT22;8864;51.970;4.614;2023-07-16T01:06:18;26.10;60.60
17495;DHT22;8864;51.970;4.614;2023-07-16T01:08:55;26.10;60.60
17495;DHT22;8864;51.970;4.614;2023-07-16T01:11:24;26.10;60.60
17495;DHT22;8864;51.970;4.614;2023-07-16T01:13:52;26.10;60.70
17495;DHT22;8864;51.970;4.614;2023-07-16T01:16:20;26.10;60.60
17495;DHT22;8864;51.970;4.614;2023-07-16T01:18:49;26.10;60.60
17495;DHT22;8864;51.970;4.614;2023-07-16T01:21:19;26.10;61.30
17495;DHT22;8864;51.970;4.614;2023-07-16T01:26:58;26.10;60.60
17495;DHT22;8864;51.970;4.614;2023-07-16T01:29:36;26.00;60.50
17495;DHT22;8864;51.970;4.614;2023-07-16T01:32:05;26.10;60.60
17495;DHT22;8864;51.970;4.614;2023-07-16T01:34:34;26.10;60.60
17495;DHT22;8864;51.970;4.614;2023-07-16T01:37:02;26.10;60.60
17495;DHT22;8864;51.970;4.614;2023-07-16T01:39:30;26.10;60.60
17495;DHT22;8864;51.970;4.614;2023-07-16T01:41:58;26.00;60.60
17495;DHT22;8864;51.970;4.614;2023-07-16T01:44:25;26.00;60.60
17495;DHT22;8864;51.970;4.614;2023-07-16T01:47:05;26.00;60.60
17495;DHT22;8864;51.970;4.614;2023-07-16T01:49:32;26.00;60.60
17495;DHT22;8864;51.970;4.614;2023-07-16T01:52:00;26.00;60.60
17495;DHT22;8864;51.970;4.614;2023-07-16T01:54:27;26.00;60.60
17495;DHT22;8864;51.970;4.614;2023-07-16T01:56:54;26.00;60.60
17495;DHT22;8864;51.970;4.614;2023-07-16T01:59:21;26.00;60.60
17495;DHT22;8864;51.970;4.614;2023-07-16T02:01:50;26.00;60.60
17495;DHT22;8864;51.970;4.614;2023-07-16T02:04:23;26.00;60.60
17495;DHT22;8864;51.970;4.614;2023-07-16T02:06:50;26.00;60.60
17495;DHT22;8864;51.970;4.614;2023-07-16T02:09:17;26.00;60.60
17495;DHT22;8864;51.970;4.614;2023-07-16T02:11:44;26.00;60.60
17495;DHT22;8864;51.970;4.614;2023-07-16T02:14:11;26.00;60.60
17495;DHT22;8864;51.970;4.614;2023-07-16T02:16:39;26.00;60.60
17495;DHT22;8864;51.970;4.614;2023-07-16T02:19:06;26.00;60.60
17495;DHT22;8864;51.970;4.614;2023-07-16T02:21:35;26.00;60.70
17495;DHT22;8864;51.970;4.614;2023-07-16T02:24:02;26.00;60.60
17495;DHT22;8864;51.970;4.614;2023-07-16T02:26:29;26.00;60.70
17495;DHT22;8864;51.970;4.614;2023-07-16T02:28:55;25.90;60.60
17495;DHT22;8864;51.970;4.614;2023-07-16T02:31:25;25.90;60.60
17495;DHT22;8864;51.970;4.614;2023-07-16T02:33:52;25.90;60.50
17495;DHT22;8864;51.970;4.614;2023-07-16T02:36:19;25.90;60.50
17495;DHT22;8864;51.970;4.614;2023-07-16T02:38:49;25.90;60.60
17495;DHT22;8864;51.970;4.614;2023-07-16T02:41:16;25.90;60.60
17495;DHT22;8864;51.970;4.614;2023-07-16T02:43:45;25.90;60.60
17495;DHT22;8864;51.970;4.614;2023-07-16T02:46:12;25.90;60.60
17495;DHT22;8864;51.970;4.614;2023-07-16T02:48:40;25.90;60.60
17495;DHT22;8864;51.970;4.614;2023-07-16T02:51:07;25.90;60.60
17495;DHT22;8864;51.970;4.614;2023-07-16T02:53:33;25.90;60.60
17495;DHT22;8864;51.970;4.614;2023-07-16T02:56:02;25.90;60.60
17495;DHT22;8864;51.970;4.614;2023-07-16T02:58:29;25.90;60.70
17495;DHT22;8864;51.970;4.614;2023-07-16T03:00:56;25.90;60.60
17495;DHT22;8864;51.970;4.614;2023-07-16T03:03:23;25.90;60.60
17495;DHT22;8864;51.970;4.614;2023-07-16T03:05:50;25.80;60.60
17495;DHT22;8864;51.970;4.614;2023-07-16T03:08:17;25.80;60.60
17495;DHT22;8864;51.970;4.614;2023-07-16T03:10:43;25.90;60.70
17495;DHT22;8864;51.970;4.614;2023-07-16T03:13:12;25.90;60.70
17495;DHT22;8864;51.970;4.614;2023-07-16T03:15:39;25.80;60.60
17495;DHT22;8864;51.970;4.614;2023-07-16T03:18:06;25.80;60.60
17495;DHT22;8864;51.970;4.614;2023-07-16T03:20:32;25.80;60.70
17495;DHT22;8864;51.970;4.614;2023-07-16T03:22:59;25.80;60.70
17495;DHT22;8864;51.970;4.614;2023-07-16T03:25:26;25.80;60.70
17495;DHT22;8864;51.970;4.614;2023-07-16T03:27:54;25.80;60.70
17495;DHT22;8864;51.970;4.614;2023-07-16T03:30:22;25.80;60.60
17495;DHT22;8864;51.970;4.614;2023-07-16T03:32:49;25.80;60.60
17495;DHT22;8864;51.970;4.614;2023-07-16T03:35:16;25.80;60.60
17495;DHT22;8864;51.970;4.614;2023-07-16T03:37:42;25.80;60.60
17495;DHT22;8864;51.970;4.614;2023-07-16T03:40:13;25.80;60.60
17495;DHT22;8864;51.970;4.614;2023-07-16T03:42:41;25.80;60.60
17495;DHT22;8864;51.970;4.614;2023-07-16T03:45:09;25.80;60.60
17495;DHT22;8864;51.970;4.614;2023-07-16T03:47:37;25.80;60.60
17495;DHT22;8864;51.970;4.614;2023-07-16T03:50:05;25.80;60.70
17495;DHT22;8864;51.970;4.614;2023-07-16T03:52:32;25.80;60.60
17495;DHT22;8864;51.970;4.614;2023-07-16T03:54:59;25.80;60.70
17495;DHT22;8864;51.970;4.614;2023-07-16T03:59:53;25.80;60.70
17495;DHT22;8864;51.970;4.614;2023-07-16T04:02:20;25.80;60.70
17495;DHT22;8864;51.970;4.614;2023-07-16T04:04:48;25.70;60.60
17495;DHT22;8864;51.970;4.614;2023-07-16T04:07:15;25.80;60.70
17495;DHT22;8864;51.970;4.614;2023-07-16T04:09:48;25.80;60.70
17495;DHT22;8864;51.970;4.614;2023-07-16T04:12:15;25.70;60.60
17495;DHT22;8864;51.970;4.614;2023-07-16T04:14:42;25.80;60.60
17495;DHT22;8864;51.970;4.614;2023-07-16T04:17:10;25.70;60.60
17495;DHT22;8864;51.970;4.614;2023-07-16T04:19:38;25.70;60.60
17495;DHT22;8864;51.970;4.614;2023-07-16T04:22:06;25.70;60.60
17495;DHT22;8864;51.970;4.614;2023-07-16T04:24:33;25.70;60.50
17495;DHT22;8864;51.970;4.614;2023-07-16T04:27:00;25.70;60.50
17495;DHT22;8864;51.970;4.614;2023-07-16T04:29:27;25.70;60.50
17495;DHT22;8864;51.970;4.614;2023-07-16T04:31:54;25.70;60.50
17495;DHT22;8864;51.970;4.614;2023-07-16T04:34:20;25.70;60.50
17495;DHT22;8864;51.970;4.614;2023-07-16T04:36:47;25.70;60.50
17495;DHT22;8864;51.970;4.614;2023-07-16T04:39:15;25.70;60.50
17495;DHT22;8864;51.970;4.614;2023-07-16T04:41:42;25.70;60.50
17495;DHT22;8864;51.970;4.614;2023-07-16T04:44:09;25.70;60.50
17495;DHT22;8864;51.970;4.614;2023-07-16T04:46:36;25.70;60.50
17495;DHT22;8864;51.970;4.614;2023-07-16T04:49:05;25.70;60.50
17495;DHT22;8864;51.970;4.614;2023-07-16T04:51:31;25.70;60.50
17495;DHT22;8864;51.970;4.614;2023-07-16T04:53:58;25.70;60.50
17495;DHT22;8864;51.970;4.614;2023-07-16T04:56:26;25.70;60.50
17495;DHT22;8864;51.970;4.614;2023-07-16T04:58:53;25.70;60.60
17495;DHT22;8864;51.970;4.614;2023-07-16T05:01:20;25.70;60.60
17495;DHT22;8864;51.970;4.614;2023-07-16T05:03:47;25.70;60.50
17495;DHT22;8864;51.970;4.614;2023-07-16T05:06:14;25.70;60.50
17495;DHT22;8864;51.970;4.614;2023-07-16T05:08:41;25.70;60.50
17495;DHT22;8864;51.970;4.614;2023-07-16T05:11:08;25.70;60.50
17495;DHT22;8864;51.970;4.614;2023-07-16T05:13:36;25.70;60.50
17495;DHT22;8864;51.970;4.614;2023-07-16T05:16:04;25.60;60.40
17495;DHT22;8864;51.970;4.614;2023-07-16T05:18:32;25.60;60.40
17495;DHT22;8864;51.970;4.614;2023-07-16T05:20:59;25.60;60.30
17495;DHT22;8864;51.970;4.614;2023-07-16T05:23:26;25.60;60.40
17495;DHT22;8864;51.970;4.614;2023-07-16T05:25:53;25.60;60.40
17495;DHT22;8864;51.970;4.614;2023-07-16T05:28:20;25.60;60.40
17495;DHT22;8864;51.970;4.614;2023-07-16T05:30:57;25.60;60.50
17495;DHT22;8864;51.970;4.614;2023-07-16T05:33:24;25.60;60.50
17495;DHT22;8864;51.970;4.614;2023-07-16T05:35:53;25.60;60.40
17495;DHT22;8864;51.970;4.614;2023-07-16T05:38:21;25.60;60.40
17495;DHT22;8864;51.970;4.614;2023-07-16T05:40:49;25.60;60.40
17495;DHT22;8864;51.970;4.614;2023-07-16T05:43:16;25.60;60.50
17495;DHT22;8864;51.970;4.614;2023-07-16T05:45:43;25.60;60.50
17495;DHT22;8864;51.970;4.614;2023-07-16T05:48:11;25.60;60.50
17495;DHT22;8864;51.970;4.614;2023-07-16T05:50:38;25.60;60.50
17495;DHT22;8864;51.970;4.614;2023-07-16T05:53:05;25.60;60.50
17495;DHT22;8864;51.970;4.614;2023-07-16T05:55:32;25.60;60.50
17495;DHT22;8864;51.970;4.614;2023-07-16T05:57:59;25.60;60.50
17495;DHT22;8864;51.970;4.614;2023-07-16T06:00:26;25.60;60.50
17495;DHT22;8864;51.970;4.614;2023-07-16T06:02:53;25.60;60.60
17495;DHT22;8864;51.970;4.614;2023-07-16T06:05:22;25.60;60.60
17495;DHT22;8864;51.970;4.614;2023-07-16T06:07:50;25.60;60.60
17495;DHT22;8864;51.970;4.614;2023-07-16T06:10:17;25.60;60.60
17495;DHT22;8864;51.970;4.614;2023-07-16T06:12:44;25.60;60.60
17495;DHT22;8864;51.970;4.614;2023-07-16T06:15:11;25.60;60.60
17495;DHT22;8864;51.970;4.614;2023-07-16T06:17:38;25.60;60.60
17495;DHT22;8864;51.970;4.614;2023-07-16T06:20:06;25.60;60.60
17495;DHT22;8864;51.970;4.614;2023-07-16T06:22:36;25.60;60.60
17495;DHT22;8864;51.970;4.614;2023-07-16T06:25:04;25.60;60.60
17495;DHT22;8864;51.970;4.614;2023-07-16T06:27:31;25.60;60.60
17495;DHT22;8864;51.970;4.614;2023-07-16T06:29:58;25.60;60.60
17495;DHT22;8864;51.970;4.614;2023-07-16T06:32:25;25.60;60.60
17495;DHT22;8864;51.970;4.614;2023-07-16T06:34:52;25.60;60.60
17495;DHT22;8864;51.970;4.614;2023-07-16T06:37:19;25.60;60.60
17495;DHT22;8864;51.970;4.614;2023-07-16T06:39:50;25.60;60.60
17495;DHT22;8864;51.970;4.614;2023-07-16T06:42:17;25.50;60.60
17495;DHT22;8864;51.970;4.614;2023-07-16T06:44:44;25.50;60.50
17495;DHT22;8864;51.970;4.614;2023-07-16T06:47:11;25.60;60.60
17495;DHT22;8864;51.970;4.614;2023-07-16T06:49:37;25.50;61.30
17495;DHT22;8864;51.970;4.614;2023-07-16T06:52:05;25.50;60.50
17495;DHT22;8864;51.970;4.614;2023-07-16T06:54:32;25.50;60.60
17495;DHT22;8864;51.970;4.614;2023-07-16T06:57:01;25.60;61.40
17495;DHT22;8864;51.970;4.614;2023-07-16T06:59:28;25.50;60.60
17495;DHT22;8864;51.970;4.614;2023-07-16T07:01:55;25.50;60.60
17495;DHT22;8864;51.970;4.614;2023-07-16T07:04:22;25.60;60.60
17495;DHT22;8864;51.970;4.614;2023-07-16T07:06:49;25.50;60.60
17495;DHT22;8864;51.970;4.614;2023-07-16T07:09:16;25.50;61.30
17495;DHT22;8864;51.970;4.614;2023-07-16T07:11:43;25.50;60.60
17495;DHT22;8864;51.970;4.614;2023-07-16T07:14:11;25.50;60.70
17495;DHT22;8864;51.970;4.614;2023-07-16T07:16:38;25.50;60.70
17495;DHT22;8864;51.970;4.614;2023-07-16T07:19:06;25.50;60.70
17495;DHT22;8864;51.970;4.614;2023-07-16T07:21:32;25.50;60.70
17495;DHT22;8864;51.970;4.614;2023-07-16T07:24:00;25.50;60.70
17495;DHT22;8864;51.970;4.614;2023-07-16T07:26:30;25.60;60.80
17495;DHT22;8864;51.970;4.614;2023-07-16T07:28:57;25.50;60.70
17495;DHT22;8864;51.970;4.614;2023-07-16T07:31:25;25.50;60.80
17495;DHT22;8864;51.970;4.614;2023-07-16T07:33:53;25.50;60.80
17495;DHT22;8864;51.970;4.614;2023-07-16T07:36:20;25.50;60.80
17495;DHT22;8864;51.970;4.614;2023-07-16T07:38:47;25.50;60.80
17495;DHT22;8864;51.970;4.614;2023-07-16T07:41:13;25.50;60.80
17495;DHT22;8864;51.970;4.614;2023-07-16T07:43:40;25.50;60.80
17495;DHT22;8864;51.970;4.614;2023-07-16T07:46:07;25.50;60.80
17495;DHT22;8864;51.970;4.614;2023-07-16T07:48:37;25.50;60.80
17495;DHT22;8864;51.970;4.614;2023-07-16T07:51:04;25.50;60.70
17495;DHT22;8864;51.970;4.614;2023-07-16T07:53:31;25.50;60.80
17495;DHT22;8864;51.970;4.614;2023-07-16T07:55:58;25.50;60.80
17495;DHT22;8864;51.970;4.614;2023-07-16T07:58:25;25.50;60.80
17495;DHT22;8864;51.970;4.614;2023-07-16T08:00:52;25.50;60.90
17495;DHT22;8864;51.970;4.614;2023-07-16T08:03:19;25.50;60.90
17495;DHT22;8864;51.970;4.614;2023-07-16T08:05:49;25.50;60.90
17495;DHT22;8864;51.970;4.614;2023-07-16T08:08:16;25.50;60.90
17495;DHT22;8864;51.970;4.614;2023-07-16T08:10:43;25.50;60.90
17495;DHT22;8864;51.970;4.614;2023-07-16T08:13:11;25.50;60.90
17495;DHT22;8864;51.970;4.614;2023-07-16T08:15:38;25.50;60.90
17495;DHT22;8864;51.970;4.614;2023-07-16T08:18:05;25.50;60.80
17495;DHT22;8864;51.970;4.614;2023-07-16T08:20:32;25.50;60.80
17495;DHT22;8864;51.970;4.614;2023-07-16T08:23:00;25.50;60.80
17495;DHT22;8864;51.970;4.614;2023-07-16T08:25:27;25.50;60.70
17495;DHT22;8864;51.970;4.614;2023-07-16T08:27:55;25.50;60.70
17495;DHT22;8864;51.970;4.614;2023-07-16T08:30:22;25.50;60.80
17495;DHT22;8864;51.970;4.614;2023-07-16T08:32:49;25.50;60.80
17495;DHT22;8864;51.970;4.614;2023-07-16T08:35:16;25.50;60.70
17495;DHT22;8864;51.970;4.614;2023-07-16T08:37:43;25.50;60.70
17495;DHT22;8864;51.970;4.614;2023-07-16T08:40:12;25.50;60.90
17495;DHT22;8864;51.970;4.614;2023-07-16T08:42:41;25.50;60.70
17495;DHT22;8864;51.970;4.614;2023-07-16T08:45:11;25.50;60.70
17495;DHT22;8864;51.970;4.614;2023-07-16T08:47:38;25.50;60.70
17495;DHT22;8864;51.970;4.614;2023-07-16T08:50:05;25.50;60.70
17495;DHT22;8864;51.970;4.614;2023-07-16T08:52:32;25.50;60.80
17495;DHT22;8864;51.970;4.614;2023-07-16T08:54:59;25.60;60.80
17495;DHT22;8864;51.970;4.614;2023-07-16T08:57:29;25.60;60.80
17495;DHT22;8864;51.970;4.614;2023-07-16T08:59:57;25.50;60.70
17495;DHT22;8864;51.970;4.614;2023-07-16T09:02:24;25.60;60.80
17495;DHT22;8864;51.970;4.614;2023-07-16T09:04:51;25.60;60.80
17495;DHT22;8864;51.970;4.614;2023-07-16T09:07:20;25.60;60.90
17495;DHT22;8864;51.970;4.614;2023-07-16T09:09:55;25.60;60.90
17495;DHT22;8864;51.970;4.614;2023-07-16T09:12:24;25.50;60.70
17495;DHT22;8864;51.970;4.614;2023-07-16T09:14:53;25.60;60.80
17495;DHT22;8864;51.970;4.614;2023-07-16T09:17:21;25.60;60.90
17495;DHT22;8864;51.970;4.614;2023-07-16T09:19:51;25.60;60.90
17495;DHT22;8864;51.970;4.614;2023-07-16T09:22:18;25.60;60.80
17495;DHT22;8864;51.970;4.614;2023-07-16T09:24:46;25.60;60.60
17495;DHT22;8864;51.970;4.614;2023-07-16T09:27:14;25.60;60.60
17495;DHT22;8864;51.970;4.614;2023-07-16T09:29:43;25.50;60.60
17495;DHT22;8864;51.970;4.614;2023-07-16T09:32:11;25.50;60.60
17495;DHT22;8864;51.970;4.614;2023-07-16T09:34:38;25.60;60.60
17495;DHT22;8864;51.970;4.614;2023-07-16T09:37:05;25.60;60.60
17495;DHT22;8864;51.970;4.614;2023-07-16T09:39:32;25.60;60.60
17495;DHT22;8864;51.970;4.614;2023-07-16T09:42:00;25.60;60.60
17495;DHT22;8864;51.970;4.614;2023-07-16T09:44:29;25.60;60.50
17495;DHT22;8864;51.970;4.614;2023-07-16T09:46:58;25.60;60.40
17495;DHT22;8864;51.970;4.614;2023-07-16T09:49:28;25.60;60.60
17495;DHT22;8864;51.970;4.614;2023-07-16T09:51:56;25.60;60.50
17495;DHT22;8864;51.970;4.614;2023-07-16T09:54:26;25.60;60.50
17495;DHT22;8864;51.970;4.614;2023-07-16T09:56:59;25.60;60.60
17495;DHT22;8864;51.970;4.614;2023-07-16T09:59:28;25.60;60.60
17495;DHT22;8864;51.970;4.614;2023-07-16T10:01:58;25.60;60.60
17495;DHT22;8864;51.970;4.614;2023-07-16T10:04:36;25.60;60.60
17495;DHT22;8864;51.970;4.614;2023-07-16T10:07:04;25.60;60.60
17495;DHT22;8864;51.970;4.614;2023-07-16T10:09:35;25.60;60.60
17495;DHT22;8864;51.970;4.614;2023-07-16T10:12:16;25.60;60.60
17495;DHT22;8864;51.970;4.614;2023-07-16T10:14:45;25.60;60.60
17495;DHT22;8864;51.970;4.614;2023-07-16T10:17:13;25.60;60.60
17495;DHT22;8864;51.970;4.614;2023-07-16T10:19:57;25.60;60.60
17495;DHT22;8864;51.970;4.614;2023-07-16T10:22:38;25.60;60.60
17495;DHT22;8864;51.970;4.614;2023-07-16T10:25:08;25.60;60.60
17495;DHT22;8864;51.970;4.614;2023-07-16T10:27:36;25.70;60.60
17495;DHT22;8864;51.970;4.614;2023-07-16T10:30:04;25.70;60.60
17495;DHT22;8864;51.970;4.614;2023-07-16T10:32:32;25.70;60.70
17495;DHT22;8864;51.970;4.614;2023-07-16T10:35:01;25.70;60.60
17495;DHT22;8864;51.970;4.614;2023-07-16T10:37:29;25.70;60.60
17495;DHT22;8864;51.970;4.614;2023-07-16T10:39:57;25.70;60.60
17495;DHT22;8864;51.970;4.614;2023-07-16T10:42:25;25.70;60.60
17495;DHT22;8864;51.970;4.614;2023-07-16T10:44:53;25.70;60.60
17495;DHT22;8864;51.970;4.614;2023-07-16T10:47:23;25.70;60.70
17495;DHT22;8864;51.970;4.614;2023-07-16T10:49:51;25.70;60.70
17495;DHT22;8864;51.970;4.614;2023-07-16T10:52:21;25.70;60.60
17495;DHT22;8864;51.970;4.614;2023-07-16T10:54:49;25.80;60.70
17495;DHT22;8864;51.970;4.614;2023-07-16T10:57:20;25.80;60.70
17495;DHT22;8864;51.970;4.614;2023-07-16T10:59:48;25.80;60.70
17495;DHT22;8864;51.970;4.614;2023-07-16T11:02:16;25.80;60.70
17495;DHT22;8864;51.970;4.614;2023-07-16T11:04:43;25.80;60.70
17495;DHT22;8864;51.970;4.614;2023-07-16T11:07:12;25.80;60.70
17495;DHT22;8864;51.970;4.614;2023-07-16T11:09:44;25.80;60.70
17495;DHT22;8864;51.970;4.614;2023-07-16T11:12:12;25.80;60.70
17495;DHT22;8864;51.970;4.614;2023-07-16T11:14:42;25.80;60.70
17495;DHT22;8864;51.970;4.614;2023-07-16T11:17:10;25.80;60.60
17495;DHT22;8864;51.970;4.614;2023-07-16T11:19:38;25.80;60.60
17495;DHT22;8864;51.970;4.614;2023-07-16T11:22:06;25.80;60.60
17495;DHT22;8864;51.970;4.614;2023-07-16T11:24:40;25.80;60.60
17495;DHT22;8864;51.970;4.614;2023-07-16T11:27:14;25.80;60.60
17495;DHT22;8864;51.970;4.614;2023-07-16T11:29:45;25.80;60.70
17495;DHT22;8864;51.970;4.614;2023-07-16T11:32:13;25.80;60.70
17495;DHT22;8864;51.970;4.614;2023-07-16T11:34:52;25.80;60.70
17495;DHT22;8864;51.970;4.614;2023-07-16T11:37:19;25.80;60.60
17495;DHT22;8864;51.970;4.614;2023-07-16T11:39:47;25.80;60.60
17495;DHT22;8864;51.970;4.614;2023-07-16T11:42:22;25.80;60.50
17495;DHT22;8864;51.970;4.614;2023-07-16T11:44:49;25.80;60.50
17495;DHT22;8864;51.970;4.614;2023-07-16T11:47:16;25.80;60.50
17495;DHT22;8864;51.970;4.614;2023-07-16T11:49:43;25.80;60.40
17495;DHT22;8864;51.970;4.614;2023-07-16T11:52:10;25.80;60.40
17495;DHT22;8864;51.970;4.614;2023-07-16T11:54:37;25.90;60.50
17495;DHT22;8864;51.970;4.614;2023-07-16T11:57:04;25.90;60.40
17495;DHT22;8864;51.970;4.614;2023-07-16T11:59:33;25.80;60.40
17495;DHT22;8864;51.970;4.614;2023-07-16T12:02:00;25.80;60.40
17495;DHT22;8864;51.970;4.614;2023-07-16T12:04:27;25.90;60.40
17495;DHT22;8864;51.970;4.614;2023-07-16T12:06:54;25.80;60.30
17495;DHT22;8864;51.970;4.614;2023-07-16T12:09:21;25.80;60.30
17495;DHT22;8864;51.970;4.614;2023-07-16T12:11:47;25.90;60.40
17495;DHT22;8864;51.970;4.614;2023-07-16T12:14:14;25.90;60.40
17495;DHT22;8864;51.970;4.614;2023-07-16T12:16:43;25.80;60.30
17495;DHT22;8864;51.970;4.614;2023-07-16T12:19:10;25.90;60.40
17495;DHT22;8864;51.970;4.614;2023-07-16T12:21:37;25.90;60.40
17495;DHT22;8864;51.970;4.614;2023-07-16T12:24:04;25.90;60.30
17495;DHT22;8864;51.970;4.614;2023-07-16T12:26:32;25.90;60.30
17495;DHT22;8864;51.970;4.614;2023-07-16T12:29:00;25.90;60.30
17495;DHT22;8864;51.970;4.614;2023-07-16T12:31:29;25.90;60.30
17495;DHT22;8864;51.970;4.614;2023-07-16T12:33:58;26.00;60.30
17495;DHT22;8864;51.970;4.614;2023-07-16T12:36:25;25.90;60.30
17495;DHT22;8864;51.970;4.614;2023-07-16T12:38:52;25.80;60.20
17495;DHT22;8864;51.970;4.614;2023-07-16T12:41:19;26.00;60.70
17495;DHT22;8864;51.970;4.614;2023-07-16T12:43:46;25.90;60.30
17495;DHT22;8864;51.970;4.614;2023-07-16T12:46:13;26.00;60.30
17495;DHT22;8864;51.970;4.614;2023-07-16T12:48:40;26.00;60.30
17495;DHT22;8864;51.970;4.614;2023-07-16T12:51:08;26.00;60.30
17495;DHT22;8864;51.970;4.614;2023-07-16T12:53:35;26.00;60.30
17495;DHT22;8864;51.970;4.614;2023-07-16T12:56:02;26.00;60.40
17495;DHT22;8864;51.970;4.614;2023-07-16T12:58:29;26.00;60.30
17495;DHT22;8864;51.970;4.614;2023-07-16T13:00:56;26.00;60.20
17495;DHT22;8864;51.970;4.614;2023-07-16T13:03:23;26.00;60.30
17495;DHT22;8864;51.970;4.614;2023-07-16T13:05:50;26.10;60.30
17495;DHT22;8864;51.970;4.614;2023-07-16T13:08:18;26.00;60.30
17495;DHT22;8864;51.970;4.614;2023-07-16T13:10:45;26.00;60.30
17495;DHT22;8864;51.970;4.614;2023-07-16T13:13:12;26.00;60.20
17495;DHT22;8864;51.970;4.614;2023-07-16T13:15:39;26.00;60.30
17495;DHT22;8864;51.970;4.614;2023-07-16T13:18:05;26.00;60.30
17495;DHT22;8864;51.970;4.614;2023-07-16T13:20:32;26.00;60.30
17495;DHT22;8864;51.970;4.614;2023-07-16T13:22:59;26.00;60.30
17495;DHT22;8864;51.970;4.614;2023-07-16T13:25:27;26.00;60.30
17495;DHT22;8864;51.970;4.614;2023-07-16T13:27:55;26.00;60.20
17495;DHT22;8864;51.970;4.614;2023-07-16T13:30:22;26.10;60.30
17495;DHT22;8864;51.970;4.614;2023-07-16T13:32:49;26.10;60.20
17495;DHT22;8864;51.970;4.614;2023-07-16T13:35:15;26.00;60.20
17495;DHT22;8864;51.970;4.614;2023-07-16T13:37:43;26.10;60.30
17495;DHT22;8864;51.970;4.614;2023-07-16T13:40:12;26.10;60.30
17495;DHT22;8864;51.970;4.614;2023-07-16T13:42:40;26.10;60.30
17495;DHT22;8864;51.970;4.614;2023-07-16T13:45:08;26.10;60.20
17495;DHT22;8864;51.970;4.614;2023-07-16T13:47:35;26.10;60.20
17495;DHT22;8864;51.970;4.614;2023-07-16T13:50:02;26.10;60.10
17495;DHT22;8864;51.970;4.614;2023-07-16T13:52:29;26.10;60.00
17495;DHT22;8864;51.970;4.614;2023-07-16T13:54:55;26.10;60.00
17495;DHT22;8864;51.970;4.614;2023-07-16T13:57:22;26.10;60.00
17495;DHT22;8864;51.970;4.614;2023-07-16T13:59:51;26.10;60.30
17495;DHT22;8864;51.970;4.614;2023-07-16T14:02:18;26.20;60.00
17495;DHT22;8864;51.970;4.614;2023-07-16T14:04:46;26.20;60.00
17495;DHT22;8864;51.970;4.614;2023-07-16T14:07:13;26.20;59.90
17495;DHT22;8864;51.970;4.614;2023-07-16T14:09:40;26.20;59.90
17495;DHT22;8864;51.970;4.614;2023-07-16T14:12:07;26.20;59.80
17495;DHT22;8864;51.970;4.614;2023-07-16T14:14:34;26.30;60.00
17495;DHT22;8864;51.970;4.614;2023-07-16T14:17:03;26.20;59.80
17495;DHT22;8864;51.970;4.614;2023-07-16T14:19:30;26.30;59.80
17495;DHT22;8864;51.970;4.614;2023-07-16T14:21:57;26.30;59.80
17495;DHT22;8864;51.970;4.614;2023-07-16T14:24:24;26.30;59.80
17495;DHT22;8864;51.970;4.614;2023-07-16T14:26:51;26.30;59.80
17495;DHT22;8864;51.970;4.614;2023-07-16T14:29:18;26.30;59.80
17495;DHT22;8864;51.970;4.614;2023-07-16T14:31:44;26.30;59.80
17495;DHT22;8864;51.970;4.614;2023-07-16T14:34:13;26.30;59.80
17495;DHT22;8864;51.970;4.614;2023-07-16T14:36:41;26.30;59.80
17495;DHT22;8864;51.970;4.614;2023-07-16T14:39:08;26.30;59.70
17495;DHT22;8864;51.970;4.614;2023-07-16T14:41:35;26.40;59.70
17495;DHT22;8864;51.970;4.614;2023-07-16T14:44:05;26.40;59.80
17495;DHT22;8864;51.970;4.614;2023-07-16T14:46:32;26.40;59.80
17495;DHT22;8864;51.970;4.614;2023-07-16T14:48:59;26.40;59.70
17495;DHT22;8864;51.970;4.614;2023-07-16T14:51:27;26.40;60.40
17495;DHT22;8864;51.970;4.614;2023-07-16T14:53:55;26.40;59.70
17495;DHT22;8864;51.970;4.614;2023-07-16T14:56:22;26.40;59.70
17495;DHT22;8864;51.970;4.614;2023-07-16T14:58:49;26.50;59.70
17495;DHT22;8864;51.970;4.614;2023-07-16T15:01:16;26.50;59.70
17495;DHT22;8864;51.970;4.614;2023-07-16T15:03:43;26.50;59.70
17495;DHT22;8864;51.970;4.614;2023-07-16T15:06:10;26.50;59.70
17495;DHT22;8864;51.970;4.614;2023-07-16T15:08:38;26.50;59.60
17495;DHT22;8864;51.970;4.614;2023-07-16T15:11:05;26.50;59.60
17495;DHT22;8864;51.970;4.614;2023-07-16T15:13:32;26.50;59.70
17495;DHT22;8864;51.970;4.614;2023-07-16T15:15:59;26.50;59.60
17495;DHT22;8864;51.970;4.614;2023-07-16T15:18:26;26.50;59.70
17495;DHT22;8864;51.970;4.614;2023-07-16T15:20:56;26.50;59.60
17495;DHT22;8864;51.970;4.614;2023-07-16T15:23:24;26.60;59.70
17495;DHT22;8864;51.970;4.614;2023-07-16T15:25:53;26.50;59.60
17495;DHT22;8864;51.970;4.614;2023-07-16T15:28:20;26.60;59.70
17495;DHT22;8864;51.970;4.614;2023-07-16T15:30:48;26.60;59.60
17495;DHT22;8864;51.970;4.614;2023-07-16T15:33:15;26.60;59.70
17495;DHT22;8864;51.970;4.614;2023-07-16T15:35:42;26.60;59.60
17495;DHT22;8864;51.970;4.614;2023-07-16T15:38:09;26.60;59.60
17495;DHT22;8864;51.970;4.614;2023-07-16T15:40:36;26.60;59.60
17495;DHT22;8864;51.970;4.614;2023-07-16T15:43:05;26.60;59.60
17495;DHT22;8864;51.970;4.614;2023-07-16T15:45:32;26.60;59.60
17495;DHT22;8864;51.970;4.614;2023-07-16T15:47:59;26.60;59.50
17495;DHT22;8864;51.970;4.614;2023-07-16T15:50:27;26.70;59.60
17495;DHT22;8864;51.970;4.614;2023-07-16T15:52:54;26.70;59.50
17495;DHT22;8864;51.970;4.614;2023-07-16T15:55:22;26.70;59.50